sensor_id;sensor_type;location;lat;lon;timestamp;P1;durP1;ratioP1;P2;durP2;ratioP2
52816;SDS011;38687;43.330;21.924;2022-12-10T00:01:36;73.40;;;42.25;;
52816;SDS011;38687;43.330;21.924;2022-12-10T00:04:02;82.38;;;45.65;;
52816;SDS011;38687;43.330;21.924;2022-12-10T00:06:29;78.07;;;46.45;;
52816;SDS011;38687;43.330;21.924;2022-12-10T00:09:00;90.20;;;48.47;;
52816;SDS011;38687;43.330;21.924;2022-12-10T00:11:26;86.10;;;49.40;;
52816;SDS011;38687;43.330;21.924;2022-12-10T00:13:53;108.25;;;56.35;;
52816;SDS011;38687;43.330;21.924;2022-12-10T00:16:19;92.45;;;51.35;;
52816;SDS011;38687;43.330;21.924;2022-12-10T00:18:46;84.45;;;49.42;;
52816;SDS011;38687;43.330;21.924;2022-12-10T00:21:14;106.15;;;57.63;;
52816;SDS011;38687;43.330;21.924;2022-12-10T00:23:42;96.82;;;55.38;;
52816;SDS011;38687;43.330;21.924;2022-12-10T00:26:15;91.45;;;51.15;;
52816;SDS011;38687;43.330;21.924;2022-12-10T00:28:51;85.03;;;47.08;;
52816;SDS011;38687;43.330;21.924;2022-12-10T00:31:18;89.20;;;50.35;;
52816;SDS011;38687;43.330;21.924;2022-12-10T00:33:49;91.78;;;51.72;;
52816;SDS011;38687;43.330;21.924;2022-12-10T00:36:25;72.60;;;41.33;;
52816;SDS011;38687;43.330;21.924;2022-12-10T00:38:52;72.85;;;39.85;;
52816;SDS011;38687;43.330;21.924;2022-12-10T00:41:18;73.80;;;42.05;;
52816;SDS011;38687;43.330;21.924;2022-12-10T00:43:45;86.57;;;48.38;;
52816;SDS011;38687;43.330;21.924;2022-12-10T00:46:11;72.88;;;40.80;;
52816;SDS011;38687;43.330;21.924;2022-12-10T00:48:37;75.50;;;43.35;;
52816;SDS011;38687;43.330;21.924;2022-12-10T00:51:07;83.25;;;44.95;;
52816;SDS011;38687;43.330;21.924;2022-12-10T00:53:35;68.30;;;40.25;;
52816;SDS011;38687;43.330;21.924;2022-12-10T00:56:01;67.25;;;33.83;;
52816;SDS011;38687;43.330;21.924;2022-12-10T00:58:31;65.63;;;37.58;;
52816;SDS011;38687;43.330;21.924;2022-12-10T01:01:08;52.80;;;27.27;;
52816;SDS011;38687;43.330;21.924;2022-12-10T01:03:33;41.17;;;22.80;;
52816;SDS011;38687;43.330;21.924;2022-12-10T01:06:07;43.10;;;24.08;;
52816;SDS011;38687;43.330;21.924;2022-12-10T01:08:37;50.50;;;28.63;;
52816;SDS011;38687;43.330;21.924;2022-12-10T01:11:03;41.63;;;23.58;;
52816;SDS011;38687;43.330;21.924;2022-12-10T01:13:28;36.00;;;21.27;;
52816;SDS011;38687;43.330;21.924;2022-12-10T01:15:53;44.45;;;25.23;;
52816;SDS011;38687;43.330;21.924;2022-12-10T01:18:19;29.42;;;18.33;;
52816;SDS011;38687;43.330;21.924;2022-12-10T01:20:44;37.80;;;21.48;;
52816;SDS011;38687;43.330;21.924;2022-12-10T01:23:10;36.72;;;20.27;;
52816;SDS011;38687;43.330;21.924;2022-12-10T01:25:35;27.25;;;18.30;;
52816;SDS011;38687;43.330;21.924;2022-12-10T01:28:00;25.65;;;11.77;;
52816;SDS011;38687;43.330;21.924;2022-12-10T01:30:26;25.60;;;14.73;;
52816;SDS011;38687;43.330;21.924;2022-12-10T01:32:51;16.55;;;10.55;;
52816;SDS011;38687;43.330;21.924;2022-12-10T01:35:17;16.40;;;7.57;;
52816;SDS011;38687;43.330;21.924;2022-12-10T01:37:42;15.38;;;10.00;;
52816;SDS011;38687;43.330;21.924;2022-12-10T01:40:08;47.50;;;27.77;;
52816;SDS011;38687;43.330;21.924;2022-12-10T01:42:34;21.77;;;12.65;;
52816;SDS011;38687;43.330;21.924;2022-12-10T01:45:00;28.00;;;14.52;;
52816;SDS011;38687;43.330;21.924;2022-12-10T01:47:28;26.92;;;13.88;;
52816;SDS011;38687;43.330;21.924;2022-12-10T01:49:54;23.83;;;13.63;;
52816;SDS011;38687;43.330;21.924;2022-12-10T01:52:19;20.88;;;11.45;;
52816;SDS011;38687;43.330;21.924;2022-12-10T01:54:45;18.00;;;10.68;;
52816;SDS011;38687;43.330;21.924;2022-12-10T01:57:16;22.52;;;14.02;;
52816;SDS011;38687;43.330;21.924;2022-12-10T01:59:55;22.55;;;12.02;;
52816;SDS011;38687;43.330;21.924;2022-12-10T02:10:28;16.33;;;8.50;;
52816;SDS011;38687;43.330;21.924;2022-12-10T02:13:03;21.20;;;10.18;;
52816;SDS011;38687;43.330;21.924;2022-12-10T02:15:36;11.52;;;5.78;;
52816;SDS011;38687;43.330;21.924;2022-12-10T02:18:11;7.10;;;4.78;;
52816;SDS011;38687;43.330;21.924;2022-12-10T02:20:44;10.55;;;4.80;;
52816;SDS011;38687;43.330;21.924;2022-12-10T02:25:53;8.07;;;4.78;;
52816;SDS011;38687;43.330;21.924;2022-12-10T02:30:59;6.28;;;5.00;;
52816;SDS011;38687;43.330;21.924;2022-12-10T02:33:25;8.60;;;5.15;;
52816;SDS011;38687;43.330;21.924;2022-12-10T02:35:51;11.77;;;5.38;;
52816;SDS011;38687;43.330;21.924;2022-12-10T02:38:20;9.70;;;5.78;;
52816;SDS011;38687;43.330;21.924;2022-12-10T02:40:49;12.13;;;7.25;;
52816;SDS011;38687;43.330;21.924;2022-12-10T02:43:17;11.57;;;6.43;;
52816;SDS011;38687;43.330;21.924;2022-12-10T02:45:43;16.65;;;7.20;;
52816;SDS011;38687;43.330;21.924;2022-12-10T02:48:08;15.13;;;9.20;;
52816;SDS011;38687;43.330;21.924;2022-12-10T02:50:34;22.45;;;9.23;;
52816;SDS011;38687;43.330;21.924;2022-12-10T02:53:00;16.30;;;7.72;;
52816;SDS011;38687;43.330;21.924;2022-12-10T02:55:25;18.20;;;9.48;;
52816;SDS011;38687;43.330;21.924;2022-12-10T03:12:13;16.10;;;7.72;;
52816;SDS011;38687;43.330;21.924;2022-12-10T03:14:46;18.20;;;8.55;;
52816;SDS011;38687;43.330;21.924;2022-12-10T03:17:12;15.07;;;7.35;;
52816;SDS011;38687;43.330;21.924;2022-12-10T03:19:45;11.55;;;6.32;;
52816;SDS011;38687;43.330;21.924;2022-12-10T03:22:13;16.58;;;8.57;;
52816;SDS011;38687;43.330;21.924;2022-12-10T03:24:39;21.08;;;10.35;;
52816;SDS011;38687;43.330;21.924;2022-12-10T03:27:06;22.13;;;10.27;;
52816;SDS011;38687;43.330;21.924;2022-12-10T03:29:36;22.50;;;10.52;;
52816;SDS011;38687;43.330;21.924;2022-12-10T03:32:14;23.58;;;12.90;;
52816;SDS011;38687;43.330;21.924;2022-12-10T03:34:41;20.08;;;10.00;;
52816;SDS011;38687;43.330;21.924;2022-12-10T03:37:08;21.90;;;10.93;;
52816;SDS011;38687;43.330;21.924;2022-12-10T03:39:34;23.20;;;10.98;;
52816;SDS011;38687;43.330;21.924;2022-12-10T03:41:59;21.10;;;10.32;;
52816;SDS011;38687;43.330;21.924;2022-12-10T03:46:54;25.95;;;14.48;;
52816;SDS011;38687;43.330;21.924;2022-12-10T03:49:20;23.95;;;13.63;;
52816;SDS011;38687;43.330;21.924;2022-12-10T03:51:45;32.75;;;14.95;;
52816;SDS011;38687;43.330;21.924;2022-12-10T03:54:10;26.23;;;14.57;;
52816;SDS011;38687;43.330;21.924;2022-12-10T03:56:36;28.33;;;14.57;;
52816;SDS011;38687;43.330;21.924;2022-12-10T03:59:05;27.08;;;13.60;;
52816;SDS011;38687;43.330;21.924;2022-12-10T04:01:30;26.98;;;13.43;;
52816;SDS011;38687;43.330;21.924;2022-12-10T04:03:56;23.48;;;12.00;;
52816;SDS011;38687;43.330;21.924;2022-12-10T04:06:21;30.17;;;13.00;;
52816;SDS011;38687;43.330;21.924;2022-12-10T04:08:47;25.15;;;12.48;;
52816;SDS011;38687;43.330;21.924;2022-12-10T04:11:13;23.23;;;12.10;;
52816;SDS011;38687;43.330;21.924;2022-12-10T04:13:39;24.55;;;12.00;;
52816;SDS011;38687;43.330;21.924;2022-12-10T04:16:24;25.15;;;13.82;;
52816;SDS011;38687;43.330;21.924;2022-12-10T04:18:57;20.52;;;12.32;;
52816;SDS011;38687;43.330;21.924;2022-12-10T04:21:22;26.05;;;13.90;;
52816;SDS011;38687;43.330;21.924;2022-12-10T04:24:07;17.98;;;10.68;;
52816;SDS011;38687;43.330;21.924;2022-12-10T04:26:53;15.90;;;8.68;;
52816;SDS011;38687;43.330;21.924;2022-12-10T04:29:24;18.15;;;12.13;;
52816;SDS011;38687;43.330;21.924;2022-12-10T04:31:50;18.98;;;10.25;;
52816;SDS011;38687;43.330;21.924;2022-12-10T04:34:17;15.20;;;10.63;;
52816;SDS011;38687;43.330;21.924;2022-12-10T04:36:42;17.83;;;11.35;;
52816;SDS011;38687;43.330;21.924;2022-12-10T04:39:08;20.05;;;11.60;;
52816;SDS011;38687;43.330;21.924;2022-12-10T04:41:36;14.00;;;7.90;;
52816;SDS011;38687;43.330;21.924;2022-12-10T04:44:02;10.45;;;6.78;;
52816;SDS011;38687;43.330;21.924;2022-12-10T04:46:28;10.35;;;6.45;;
52816;SDS011;38687;43.330;21.924;2022-12-10T04:48:53;11.80;;;5.32;;
52816;SDS011;38687;43.330;21.924;2022-12-10T04:51:19;10.10;;;5.88;;
52816;SDS011;38687;43.330;21.924;2022-12-10T04:53:44;15.32;;;7.25;;
52816;SDS011;38687;43.330;21.924;2022-12-10T04:56:10;10.63;;;5.47;;
52816;SDS011;38687;43.330;21.924;2022-12-10T04:58:35;11.82;;;5.32;;
52816;SDS011;38687;43.330;21.924;2022-12-10T05:01:01;13.68;;;5.82;;
52816;SDS011;38687;43.330;21.924;2022-12-10T05:03:28;10.25;;;5.82;;
52816;SDS011;38687;43.330;21.924;2022-12-10T05:05:54;11.23;;;6.25;;
52816;SDS011;38687;43.330;21.924;2022-12-10T05:08:19;8.32;;;5.85;;
52816;SDS011;38687;43.330;21.924;2022-12-10T05:10:44;8.48;;;5.85;;
52816;SDS011;38687;43.330;21.924;2022-12-10T05:13:10;8.02;;;5.32;;
52816;SDS011;38687;43.330;21.924;2022-12-10T05:15:38;9.80;;;4.90;;
52816;SDS011;38687;43.330;21.924;2022-12-10T05:18:04;16.42;;;7.53;;
52816;SDS011;38687;43.330;21.924;2022-12-10T05:20:29;11.93;;;5.35;;
52816;SDS011;38687;43.330;21.924;2022-12-10T05:22:55;10.38;;;6.15;;
52816;SDS011;38687;43.330;21.924;2022-12-10T05:25:39;8.20;;;5.18;;
52816;SDS011;38687;43.330;21.924;2022-12-10T05:28:20;7.55;;;4.88;;
52816;SDS011;38687;43.330;21.924;2022-12-10T05:30:46;14.60;;;6.93;;
52816;SDS011;38687;43.330;21.924;2022-12-10T05:33:11;12.98;;;8.05;;
52816;SDS011;38687;43.330;21.924;2022-12-10T05:35:38;14.38;;;7.13;;
52816;SDS011;38687;43.330;21.924;2022-12-10T05:38:03;15.07;;;7.35;;
52816;SDS011;38687;43.330;21.924;2022-12-10T05:40:30;16.90;;;6.68;;
52816;SDS011;38687;43.330;21.924;2022-12-10T05:42:59;15.93;;;7.95;;
52816;SDS011;38687;43.330;21.924;2022-12-10T05:45:24;15.18;;;7.38;;
52816;SDS011;38687;43.330;21.924;2022-12-10T05:47:49;14.80;;;7.45;;
52816;SDS011;38687;43.330;21.924;2022-12-10T05:50:15;10.10;;;5.40;;
52816;SDS011;38687;43.330;21.924;2022-12-10T05:52:40;12.13;;;7.47;;
52816;SDS011;38687;43.330;21.924;2022-12-10T05:55:06;17.25;;;8.07;;
52816;SDS011;38687;43.330;21.924;2022-12-10T05:57:31;11.65;;;7.00;;
52816;SDS011;38687;43.330;21.924;2022-12-10T05:59:57;15.52;;;7.50;;
52816;SDS011;38687;43.330;21.924;2022-12-10T06:02:22;11.02;;;6.63;;
52816;SDS011;38687;43.330;21.924;2022-12-10T06:04:47;19.65;;;11.05;;
52816;SDS011;38687;43.330;21.924;2022-12-10T06:07:13;16.02;;;9.82;;
52816;SDS011;38687;43.330;21.924;2022-12-10T06:09:38;18.15;;;9.45;;
52816;SDS011;38687;43.330;21.924;2022-12-10T06:12:04;13.68;;;7.68;;
52816;SDS011;38687;43.330;21.924;2022-12-10T06:14:29;16.42;;;10.75;;
52816;SDS011;38687;43.330;21.924;2022-12-10T06:16:55;15.68;;;11.20;;
52816;SDS011;38687;43.330;21.924;2022-12-10T06:19:20;18.30;;;10.80;;
52816;SDS011;38687;43.330;21.924;2022-12-10T06:21:46;14.75;;;10.02;;
52816;SDS011;38687;43.330;21.924;2022-12-10T06:24:11;16.17;;;10.07;;
52816;SDS011;38687;43.330;21.924;2022-12-10T06:26:36;15.40;;;9.55;;
52816;SDS011;38687;43.330;21.924;2022-12-10T06:29:02;114.43;;;65.90;;
52816;SDS011;38687;43.330;21.924;2022-12-10T06:31:29;114.30;;;66.18;;
52816;SDS011;38687;43.330;21.924;2022-12-10T06:33:55;80.68;;;47.25;;
52816;SDS011;38687;43.330;21.924;2022-12-10T06:36:20;91.07;;;49.88;;
52816;SDS011;38687;43.330;21.924;2022-12-10T06:38:46;71.15;;;41.95;;
52816;SDS011;38687;43.330;21.924;2022-12-10T06:41:13;78.47;;;45.55;;
52816;SDS011;38687;43.330;21.924;2022-12-10T06:43:40;217.40;;;109.88;;
52816;SDS011;38687;43.330;21.924;2022-12-10T06:46:10;116.50;;;64.40;;
52816;SDS011;38687;43.330;21.924;2022-12-10T06:48:39;119.22;;;61.78;;
52816;SDS011;38687;43.330;21.924;2022-12-10T06:51:05;132.13;;;69.80;;
52816;SDS011;38687;43.330;21.924;2022-12-10T06:53:31;90.60;;;49.10;;
52816;SDS011;38687;43.330;21.924;2022-12-10T06:55:58;145.18;;;73.32;;
52816;SDS011;38687;43.330;21.924;2022-12-10T06:58:26;123.03;;;63.08;;
52816;SDS011;38687;43.330;21.924;2022-12-10T07:00:54;92.47;;;50.55;;
52816;SDS011;38687;43.330;21.924;2022-12-10T07:03:27;91.72;;;49.08;;
52816;SDS011;38687;43.330;21.924;2022-12-10T07:05:52;162.73;;;80.80;;
52816;SDS011;38687;43.330;21.924;2022-12-10T07:08:22;131.98;;;75.60;;
52816;SDS011;38687;43.330;21.924;2022-12-10T07:10:48;110.43;;;63.45;;
52816;SDS011;38687;43.330;21.924;2022-12-10T07:13:13;70.80;;;40.10;;
52816;SDS011;38687;43.330;21.924;2022-12-10T07:15:39;63.42;;;35.78;;
52816;SDS011;38687;43.330;21.924;2022-12-10T07:18:04;72.05;;;38.90;;
52816;SDS011;38687;43.330;21.924;2022-12-10T07:20:30;49.17;;;30.05;;
52816;SDS011;38687;43.330;21.924;2022-12-10T07:22:55;51.38;;;29.02;;
52816;SDS011;38687;43.330;21.924;2022-12-10T07:25:20;47.40;;;29.52;;
52816;SDS011;38687;43.330;21.924;2022-12-10T07:27:46;52.60;;;32.20;;
52816;SDS011;38687;43.330;21.924;2022-12-10T07:30:11;51.58;;;29.15;;
52816;SDS011;38687;43.330;21.924;2022-12-10T07:32:37;39.58;;;23.70;;
52816;SDS011;38687;43.330;21.924;2022-12-10T07:35:02;37.35;;;23.30;;
52816;SDS011;38687;43.330;21.924;2022-12-10T07:37:28;46.72;;;27.50;;
52816;SDS011;38687;43.330;21.924;2022-12-10T07:39:53;46.40;;;28.05;;
52816;SDS011;38687;43.330;21.924;2022-12-10T07:42:19;43.40;;;29.17;;
52816;SDS011;38687;43.330;21.924;2022-12-10T07:44:45;52.90;;;32.97;;
52816;SDS011;38687;43.330;21.924;2022-12-10T07:47:10;49.90;;;33.05;;
52816;SDS011;38687;43.330;21.924;2022-12-10T07:49:36;55.55;;;37.55;;
52816;SDS011;38687;43.330;21.924;2022-12-10T07:52:01;54.60;;;35.58;;
52816;SDS011;38687;43.330;21.924;2022-12-10T07:54:27;53.55;;;37.75;;
52816;SDS011;38687;43.330;21.924;2022-12-10T07:56:52;90.90;;;54.55;;
52816;SDS011;38687;43.330;21.924;2022-12-10T07:59:17;112.57;;;68.35;;
52816;SDS011;38687;43.330;21.924;2022-12-10T08:01:43;120.75;;;68.38;;
52816;SDS011;38687;43.330;21.924;2022-12-10T08:04:08;124.55;;;69.00;;
52816;SDS011;38687;43.330;21.924;2022-12-10T08:06:34;106.10;;;62.55;;
52816;SDS011;38687;43.330;21.924;2022-12-10T08:09:00;168.32;;;99.15;;
52816;SDS011;38687;43.330;21.924;2022-12-10T08:11:25;143.60;;;85.00;;
52816;SDS011;38687;43.330;21.924;2022-12-10T08:13:52;127.03;;;78.82;;
52816;SDS011;38687;43.330;21.924;2022-12-10T08:16:19;124.40;;;80.20;;
52816;SDS011;38687;43.330;21.924;2022-12-10T08:18:45;140.15;;;88.38;;
52816;SDS011;38687;43.330;21.924;2022-12-10T08:21:16;135.75;;;85.72;;
52816;SDS011;38687;43.330;21.924;2022-12-10T08:23:43;169.05;;;113.22;;
52816;SDS011;38687;43.330;21.924;2022-12-10T08:26:12;95.18;;;59.47;;
52816;SDS011;38687;43.330;21.924;2022-12-10T08:28:42;63.58;;;40.28;;
52816;SDS011;38687;43.330;21.924;2022-12-10T08:31:08;55.85;;;31.73;;
52816;SDS011;38687;43.330;21.924;2022-12-10T08:33:34;38.35;;;24.05;;
52816;SDS011;38687;43.330;21.924;2022-12-10T08:36:02;41.10;;;25.08;;
52816;SDS011;38687;43.330;21.924;2022-12-10T08:38:28;52.03;;;32.80;;
52816;SDS011;38687;43.330;21.924;2022-12-10T08:40:54;33.65;;;22.58;;
52816;SDS011;38687;43.330;21.924;2022-12-10T08:43:20;32.47;;;19.55;;
52816;SDS011;38687;43.330;21.924;2022-12-10T08:45:45;27.10;;;17.95;;
52816;SDS011;38687;43.330;21.924;2022-12-10T08:48:11;31.73;;;18.70;;
52816;SDS011;38687;43.330;21.924;2022-12-10T08:50:37;30.33;;;20.35;;
52816;SDS011;38687;43.330;21.924;2022-12-10T08:53:02;37.53;;;25.45;;
52816;SDS011;38687;43.330;21.924;2022-12-10T08:55:28;37.92;;;23.00;;
52816;SDS011;38687;43.330;21.924;2022-12-10T08:57:53;59.03;;;35.58;;
52816;SDS011;38687;43.330;21.924;2022-12-10T09:00:19;77.93;;;46.88;;
52816;SDS011;38687;43.330;21.924;2022-12-10T09:02:45;36.03;;;22.45;;
52816;SDS011;38687;43.330;21.924;2022-12-10T09:05:13;15.13;;;9.75;;
52816;SDS011;38687;43.330;21.924;2022-12-10T09:07:39;7.95;;;5.55;;
52816;SDS011;38687;43.330;21.924;2022-12-10T09:10:09;10.18;;;5.93;;
52816;SDS011;38687;43.330;21.924;2022-12-10T09:12:36;7.95;;;3.53;;
52816;SDS011;38687;43.330;21.924;2022-12-10T09:15:02;16.02;;;10.70;;
52816;SDS011;38687;43.330;21.924;2022-12-10T09:17:28;15.30;;;9.90;;
52816;SDS011;38687;43.330;21.924;2022-12-10T09:19:53;10.27;;;6.63;;
52816;SDS011;38687;43.330;21.924;2022-12-10T09:22:19;11.20;;;7.13;;
52816;SDS011;38687;43.330;21.924;2022-12-10T09:24:44;10.93;;;6.65;;
52816;SDS011;38687;43.330;21.924;2022-12-10T09:27:10;9.32;;;5.18;;
52816;SDS011;38687;43.330;21.924;2022-12-10T09:29:35;11.13;;;5.65;;
52816;SDS011;38687;43.330;21.924;2022-12-10T09:32:01;8.85;;;3.83;;
52816;SDS011;38687;43.330;21.924;2022-12-10T09:34:26;8.55;;;2.80;;
52816;SDS011;38687;43.330;21.924;2022-12-10T09:36:51;7.55;;;3.33;;
52816;SDS011;38687;43.330;21.924;2022-12-10T09:39:17;8.77;;;5.07;;
52816;SDS011;38687;43.330;21.924;2022-12-10T09:45:00;9.00;;;4.78;;
52816;SDS011;38687;43.330;21.924;2022-12-10T09:47:35;9.63;;;5.28;;
52816;SDS011;38687;43.330;21.924;2022-12-10T09:52:37;10.93;;;6.10;;
52816;SDS011;38687;43.330;21.924;2022-12-10T09:55:12;8.05;;;5.18;;
52816;SDS011;38687;43.330;21.924;2022-12-10T09:57:44;17.67;;;10.38;;
52816;SDS011;38687;43.330;21.924;2022-12-10T10:02:52;15.73;;;7.47;;
52816;SDS011;38687;43.330;21.924;2022-12-10T10:05:25;11.90;;;6.07;;
52816;SDS011;38687;43.330;21.924;2022-12-10T10:07:56;13.88;;;5.50;;
52816;SDS011;38687;43.330;21.924;2022-12-10T10:12:55;13.13;;;8.18;;
52816;SDS011;38687;43.330;21.924;2022-12-10T10:15:31;10.45;;;7.68;;
52816;SDS011;38687;43.330;21.924;2022-12-10T10:17:58;8.95;;;4.10;;
52816;SDS011;38687;43.330;21.924;2022-12-10T10:20:33;5.55;;;2.60;;
52816;SDS011;38687;43.330;21.924;2022-12-10T10:23:00;4.80;;;2.58;;
52816;SDS011;38687;43.330;21.924;2022-12-10T10:25:25;7.13;;;3.10;;
52816;SDS011;38687;43.330;21.924;2022-12-10T10:27:51;7.07;;;4.82;;
52816;SDS011;38687;43.330;21.924;2022-12-10T10:30:18;6.38;;;4.22;;
52816;SDS011;38687;43.330;21.924;2022-12-10T10:32:54;8.68;;;4.57;;
52816;SDS011;38687;43.330;21.924;2022-12-10T10:35:29;4.95;;;3.10;;
52816;SDS011;38687;43.330;21.924;2022-12-10T10:37:57;15.45;;;5.03;;
52816;SDS011;38687;43.330;21.924;2022-12-10T10:40:28;5.30;;;3.10;;
52816;SDS011;38687;43.330;21.924;2022-12-10T10:42:56;9.38;;;4.90;;
52816;SDS011;38687;43.330;21.924;2022-12-10T10:45:34;4.32;;;1.65;;
52816;SDS011;38687;43.330;21.924;2022-12-10T10:48:12;2.38;;;2.15;;
52816;SDS011;38687;43.330;21.924;2022-12-10T10:50:40;4.93;;;2.40;;
52816;SDS011;38687;43.330;21.924;2022-12-10T10:58:34;5.32;;;4.05;;
52816;SDS011;38687;43.330;21.924;2022-12-10T11:01:01;6.78;;;4.28;;
52816;SDS011;38687;43.330;21.924;2022-12-10T11:03:28;10.65;;;6.35;;
52816;SDS011;38687;43.330;21.924;2022-12-10T11:05:54;5.63;;;3.30;;
52816;SDS011;38687;43.330;21.924;2022-12-10T11:08:21;4.97;;;2.72;;
52816;SDS011;38687;43.330;21.924;2022-12-10T11:10:51;5.82;;;2.67;;
52816;SDS011;38687;43.330;21.924;2022-12-10T11:13:39;5.85;;;3.45;;
52816;SDS011;38687;43.330;21.924;2022-12-10T11:18:51;4.15;;;2.25;;
52816;SDS011;38687;43.330;21.924;2022-12-10T11:21:19;6.85;;;3.78;;
52816;SDS011;38687;43.330;21.924;2022-12-10T11:23:47;8.88;;;4.78;;
52816;SDS011;38687;43.330;21.924;2022-12-10T11:31:43;42.78;;;21.33;;
52816;SDS011;38687;43.330;21.924;2022-12-10T11:37:34;14.80;;;8.30;;
52816;SDS011;38687;43.330;21.924;2022-12-10T11:41:07;12.15;;;7.93;;
52816;SDS011;38687;43.330;21.924;2022-12-10T11:56:58;8.85;;;5.30;;
52816;SDS011;38687;43.330;21.924;2022-12-10T12:13:18;13.90;;;8.65;;
52816;SDS011;38687;43.330;21.924;2022-12-10T12:15:53;15.77;;;9.45;;
52816;SDS011;38687;43.330;21.924;2022-12-10T12:18:26;11.38;;;6.68;;
52816;SDS011;38687;43.330;21.924;2022-12-10T12:20:56;12.40;;;6.03;;
52816;SDS011;38687;43.330;21.924;2022-12-10T12:23:26;7.60;;;5.00;;
52816;SDS011;38687;43.330;21.924;2022-12-10T12:26:06;12.45;;;7.15;;
52816;SDS011;38687;43.330;21.924;2022-12-10T12:28:36;13.48;;;7.90;;
52816;SDS011;38687;43.330;21.924;2022-12-10T12:31:06;17.35;;;9.45;;
52816;SDS011;38687;43.330;21.924;2022-12-10T12:33:42;14.88;;;8.88;;
52816;SDS011;38687;43.330;21.924;2022-12-10T12:41:16;15.48;;;9.40;;
52816;SDS011;38687;43.330;21.924;2022-12-10T12:43:55;17.38;;;10.02;;
52816;SDS011;38687;43.330;21.924;2022-12-10T12:46:45;14.00;;;10.20;;
52816;SDS011;38687;43.330;21.924;2022-12-10T12:49:20;16.65;;;11.07;;
52816;SDS011;38687;43.330;21.924;2022-12-10T12:54:18;16.13;;;9.30;;
52816;SDS011;38687;43.330;21.924;2022-12-10T13:04:19;53.47;;;28.08;;
52816;SDS011;38687;43.330;21.924;2022-12-10T13:07:08;33.40;;;20.05;;
52816;SDS011;38687;43.330;21.924;2022-12-10T13:09:49;22.75;;;14.45;;
52816;SDS011;38687;43.330;21.924;2022-12-10T13:17:37;26.95;;;17.98;;
52816;SDS011;38687;43.330;21.924;2022-12-10T13:23:02;47.05;;;31.58;;
52816;SDS011;38687;43.330;21.924;2022-12-10T13:37:03;66.40;;;40.25;;
52816;SDS011;38687;43.330;21.924;2022-12-10T13:39:20;85.72;;;47.55;;
52816;SDS011;38687;43.330;21.924;2022-12-10T13:47:26;138.48;;;72.28;;
52816;SDS011;38687;43.330;21.924;2022-12-10T13:49:57;115.28;;;64.85;;
52816;SDS011;38687;43.330;21.924;2022-12-10T13:58:19;157.27;;;87.22;;
52816;SDS011;38687;43.330;21.924;2022-12-10T14:01:06;175.93;;;93.47;;
52816;SDS011;38687;43.330;21.924;2022-12-10T14:08:46;177.45;;;98.30;;
52816;SDS011;38687;43.330;21.924;2022-12-10T14:11:37;215.45;;;118.50;;
52816;SDS011;38687;43.330;21.924;2022-12-10T14:14:06;171.75;;;96.63;;
52816;SDS011;38687;43.330;21.924;2022-12-10T14:16:38;113.30;;;64.82;;
52816;SDS011;38687;43.330;21.924;2022-12-10T14:19:09;125.03;;;75.10;;
52816;SDS011;38687;43.330;21.924;2022-12-10T14:21:38;121.97;;;66.93;;
52816;SDS011;38687;43.330;21.924;2022-12-10T14:24:05;124.57;;;75.53;;
52816;SDS011;38687;43.330;21.924;2022-12-10T14:26:31;149.90;;;87.22;;
52816;SDS011;38687;43.330;21.924;2022-12-10T14:28:59;183.65;;;102.43;;
52816;SDS011;38687;43.330;21.924;2022-12-10T14:31:35;222.55;;;124.90;;
52816;SDS011;38687;43.330;21.924;2022-12-10T14:34:10;224.90;;;139.70;;
52816;SDS011;38687;43.330;21.924;2022-12-10T14:36:45;212.10;;;124.55;;
52816;SDS011;38687;43.330;21.924;2022-12-10T14:39:16;185.77;;;104.45;;
52816;SDS011;38687;43.330;21.924;2022-12-10T14:41:44;178.75;;;104.65;;
52816;SDS011;38687;43.330;21.924;2022-12-10T14:44:14;173.43;;;100.30;;
52816;SDS011;38687;43.330;21.924;2022-12-10T14:46:40;229.13;;;127.55;;
52816;SDS011;38687;43.330;21.924;2022-12-10T14:49:07;191.45;;;112.93;;
52816;SDS011;38687;43.330;21.924;2022-12-10T14:51:33;176.38;;;112.47;;
52816;SDS011;38687;43.330;21.924;2022-12-10T14:54:02;181.73;;;106.28;;
52816;SDS011;38687;43.330;21.924;2022-12-10T14:59:01;192.05;;;114.25;;
52816;SDS011;38687;43.330;21.924;2022-12-10T15:01:36;171.23;;;104.75;;
52816;SDS011;38687;43.330;21.924;2022-12-10T15:04:03;183.55;;;108.30;;
52816;SDS011;38687;43.330;21.924;2022-12-10T15:06:35;191.50;;;111.53;;
52816;SDS011;38687;43.330;21.924;2022-12-10T15:09:05;227.43;;;128.77;;
52816;SDS011;38687;43.330;21.924;2022-12-10T15:11:31;166.38;;;102.80;;
52816;SDS011;38687;43.330;21.924;2022-12-10T15:14:00;202.05;;;115.55;;
52816;SDS011;38687;43.330;21.924;2022-12-10T15:16:28;221.93;;;132.73;;
52816;SDS011;38687;43.330;21.924;2022-12-10T15:19:13;220.30;;;128.25;;
52816;SDS011;38687;43.330;21.924;2022-12-10T15:21:43;240.02;;;135.57;;
52816;SDS011;38687;43.330;21.924;2022-12-10T15:24:14;221.82;;;133.05;;
52816;SDS011;38687;43.330;21.924;2022-12-10T15:26:42;243.85;;;141.98;;
52816;SDS011;38687;43.330;21.924;2022-12-10T15:29:31;238.48;;;140.43;;
52816;SDS011;38687;43.330;21.924;2022-12-10T15:31:59;354.48;;;202.63;;
52816;SDS011;38687;43.330;21.924;2022-12-10T15:34:50;293.88;;;169.45;;
52816;SDS011;38687;43.330;21.924;2022-12-10T15:37:24;364.83;;;209.57;;
52816;SDS011;38687;43.330;21.924;2022-12-10T15:39:55;308.33;;;186.80;;
52816;SDS011;38687;43.330;21.924;2022-12-10T15:47:42;234.38;;;145.32;;
52816;SDS011;38687;43.330;21.924;2022-12-10T15:50:08;335.70;;;194.55;;
52816;SDS011;38687;43.330;21.924;2022-12-10T15:52:34;316.55;;;186.98;;
52816;SDS011;38687;43.330;21.924;2022-12-10T15:54:59;257.73;;;150.10;;
52816;SDS011;38687;43.330;21.924;2022-12-10T15:57:26;348.58;;;195.73;;
52816;SDS011;38687;43.330;21.924;2022-12-10T15:59:54;210.27;;;120.45;;
52816;SDS011;38687;43.330;21.924;2022-12-10T16:02:40;234.50;;;139.02;;
52816;SDS011;38687;43.330;21.924;2022-12-10T16:07:41;208.40;;;122.60;;
52816;SDS011;38687;43.330;21.924;2022-12-10T16:10:07;226.20;;;136.82;;
52816;SDS011;38687;43.330;21.924;2022-12-10T16:12:35;222.38;;;139.55;;
52816;SDS011;38687;43.330;21.924;2022-12-10T16:15:04;173.18;;;109.60;;
52816;SDS011;38687;43.330;21.924;2022-12-10T16:17:43;258.35;;;153.68;;
52816;SDS011;38687;43.330;21.924;2022-12-10T16:22:51;279.05;;;182.45;;
52816;SDS011;38687;43.330;21.924;2022-12-10T16:25:17;272.17;;;173.70;;
52816;SDS011;38687;43.330;21.924;2022-12-10T16:27:43;284.58;;;171.98;;
52816;SDS011;38687;43.330;21.924;2022-12-10T16:32:54;255.02;;;153.25;;
52816;SDS011;38687;43.330;21.924;2022-12-10T16:35:20;302.90;;;160.85;;
52816;SDS011;38687;43.330;21.924;2022-12-10T16:37:47;217.55;;;130.65;;
52816;SDS011;38687;43.330;21.924;2022-12-10T16:40:20;169.75;;;102.60;;
52816;SDS011;38687;43.330;21.924;2022-12-10T16:42:55;192.43;;;112.05;;
52816;SDS011;38687;43.330;21.924;2022-12-10T16:45:25;178.90;;;103.57;;
52816;SDS011;38687;43.330;21.924;2022-12-10T16:47:53;178.15;;;104.55;;
52816;SDS011;38687;43.330;21.924;2022-12-10T16:50:18;130.00;;;73.25;;
52816;SDS011;38687;43.330;21.924;2022-12-10T16:52:44;143.18;;;86.45;;